Time;durP1;ratioP1;P1;durP2;ratioP2;P2;SDS_P1;SDS_P2;PMS_P1;PMS_P2;Temp;Humidity;BMP_temperature;BMP_pressure;BME280_temperature;BME280_humidity;BME280_pressure;Samples;Min_cycle;Max_cycle;Signal;HPM_P1;HPM_P2
2022/10/04 00:02:44;;;;;;;20.77;7.20;;;;;;;9.98;100.00;102172.63;13015058;22;20336;-88
2022/10/04 00:07:47;;;;;;;17.98;8.55;;;;;;;9.43;100.00;102068.59;13028954;22;20441;-88
2022/10/04 00:12:55;;;;;;;14.82;6.95;;;;;;;9.65;100.00;102088.34;13003651;22;20383;-88
2022/10/04 00:18:05;;;;;;;16.10;7.43;;;;;;;9.69;100.00;102111.59;13022781;22;20033;-88
2022/10/04 00:23:23;;;;;;;10.82;7.30;;;;;;;10.97;100.00;102289.66;13021926;22;20003;-88
2022/10/04 00:28:24;;;;;;;15.45;7.53;;;;;;;10.35;100.00;102203.19;13098578;22;20018;-88
2022/10/04 00:34:02;;;;;;;15.77;7.70;;;;;;;9.67;100.00;102075.22;13068033;22;20006;-88
2022/10/04 00:39:03;;;;;;;16.20;8.00;;;;;;;10.88;100.00;102279.97;12963238;22;20331;-88
2022/10/04 00:44:04;;;;;;;15.10;7.80;;;;;;;8.85;100.00;101959.53;13095785;22;20042;-88
2022/10/04 00:49:05;;;;;;;19.67;8.65;;;;;;;9.01;100.00;102010.38;13016320;22;20014;-87
2022/10/04 00:54:07;;;;;;;24.73;10.93;;;;;;;10.43;100.00;102205.69;12989886;22;20034;-88
2022/10/04 00:59:16;;;;;;;18.00;9.95;;;;;;;10.72;100.00;102237.25;13068450;22;20010;-88
2022/10/04 01:04:37;;;;;;;20.20;9.18;;;;;;;10.75;100.00;102252.50;13042633;22;20010;-88
2022/10/04 01:09:43;;;;;;;29.48;10.45;;;;;;;9.84;100.00;102142.44;13020522;22;20349;-87
2022/10/04 01:14:58;;;;;;;23.92;10.40;;;;;;;9.26;100.00;102033.34;13018116;22;20007;-87
2022/10/04 01:19:59;;;;;;;19.30;10.77;;;;;;;9.86;100.00;102125.69;13006757;22;20002;-88
2022/10/04 01:24:59;;;;;;;23.00;12.52;;;;;;;9.63;100.00;102074.84;13000183;22;20011;-88
2022/10/04 01:30:00;;;;;;;29.77;12.10;;;;;;;10.15;100.00;102121.53;13012903;22;20018;-88
2022/10/04 01:35:01;;;;;;;21.10;12.45;;;;;;;9.66;100.00;102085.41;13042643;22;20429;-87
2022/10/04 01:40:01;;;;;;;25.13;13.50;;;;;;;10.21;100.00;102130.81;13042387;22;20326;-88
2022/10/04 01:45:05;;;;;;;31.50;14.77;;;;;;;10.93;100.00;102211.25;13016632;22;20037;-87
2022/10/04 01:50:10;;;;;;;24.85;13.35;;;;;;;9.00;100.00;101932.63;13041504;22;20011;-87
2022/10/04 01:55:16;;;;;;;26.35;12.90;;;;;;;8.93;100.00;101907.13;13018005;22;20013;-87
2022/10/04 02:00:17;;;;;;;25.45;14.23;;;;;;;10.37;100.00;102108.28;13017056;22;19999;-87
2022/10/04 02:05:31;;;;;;;24.17;12.52;;;;;;;10.19;100.00;102066.88;13027805;22;20007;-87
2022/10/04 02:10:32;;;;;;;23.77;12.00;;;;;;;9.54;100.00;101944.19;13041228;22;20340;-88
2022/10/04 02:15:33;;;;;;;21.83;11.98;;;;;;;9.31;100.00;101921.94;13006656;22;20645;-88
2022/10/04 02:20:33;;;;;;;20.20;11.35;;;;;;;10.22;100.00;102053.53;13003861;22;20005;-88
2022/10/04 02:25:35;;;;;;;20.58;11.80;;;;;;;9.22;100.00;101855.38;13040146;22;20437;-88
2022/10/04 02:30:41;;;;;;;19.58;11.60;;;;;;;10.09;100.00;102024.22;13041977;22;20026;-87
2022/10/04 02:35:45;;;;;;;23.33;11.70;;;;;;;10.27;100.00;102019.81;13039770;22;20032;-88
2022/10/04 02:40:57;;;;;;;22.33;12.48;;;;;;;9.81;100.00;101961.34;12998585;22;20125;-87
2022/10/04 02:46:13;;;;;;;25.20;11.80;;;;;;;11.11;100.00;102136.91;13003089;22;20014;-88
2022/10/04 02:51:13;;;;;;;24.77;12.75;;;;;;;10.70;100.00;102082.41;13042583;22;20029;-87
2022/10/04 02:56:14;;;;;;;23.02;12.43;;;;;;;9.92;100.00;101990.03;13069475;22;20294;-87
2022/10/04 03:01:26;;;;;;;23.88;13.02;;;;;;;9.76;100.00;101969.44;13004411;22;20003;-88
2022/10/04 03:06:28;;;;;;;24.42;14.07;;;;;;;9.66;100.00;101925.06;13007164;22;20007;-88
2022/10/04 03:11:36;;;;;;;24.92;12.85;;;;;;;9.32;100.00;101877.72;13033066;22;20010;-89
2022/10/04 03:16:38;;;;;;;27.25;14.07;;;;;;;10.03;100.00;102024.25;13007689;22;20006;-86
2022/10/04 03:21:39;;;;;;;24.60;13.02;;;;;;;10.04;100.00;102031.44;13019327;22;20003;-88
2022/10/04 03:26:41;;;;;;;29.13;13.68;;;;;;;10.60;100.00;102096.66;13028524;22;20053;-88
2022/10/04 03:31:48;;;;;;;23.00;13.50;;;;;;;10.07;100.00;102062.09;13045100;22;20083;-87
2022/10/04 03:36:50;;;;;;;28.52;14.65;;;;;;;10.35;100.00;102066.38;13034183;22;20003;-87
2022/10/04 03:41:52;;;;;;;27.77;14.90;;;;;;;9.88;100.00;102025.41;13021385;22;20031;-88
2022/10/04 03:46:52;;;;;;;26.05;14.57;;;;;;;9.61;100.00;101974.38;13053493;22;20369;-87
2022/10/04 03:51:53;;;;;;;30.85;16.48;;;;;;;8.24;100.00;101774.94;13057245;22;20003;-87
2022/10/04 03:56:54;;;;;;;24.42;16.10;;;;;;;8.34;100.00;101773.66;13035226;22;20003;-87
2022/10/04 04:02:00;;;;;;;33.30;16.15;;;;;;;9.89;100.00;102015.25;13050915;22;20013;-87
2022/10/04 04:07:05;;;;;;;26.05;15.02;;;;;;;8.63;100.00;101817.03;12999023;22;20025;-87
2022/10/04 04:12:33;;;;;;;28.38;16.00;;;;;;;9.35;100.00;101992.72;12892250;22;20078;-87
2022/10/04 04:17:40;;;;;;;26.30;16.70;;;;;;;9.05;100.00;101913.63;12932430;22;20589;-87
2022/10/04 04:22:53;;;;;;;27.45;15.52;;;;;;;8.91;100.00;101906.50;12930782;22;20099;-88
2022/10/04 04:28:03;;;;;;;28.27;16.90;;;;;;;9.28;100.00;101956.16;12950502;22;20095;-88
2022/10/04 04:33:09;;;;;;;29.70;17.85;;;;;;;10.16;100.00;102084.69;12914948;22;20025;-88
2022/10/04 04:38:27;;;;;;;28.75;17.10;;;;;;;8.83;100.00;101871.03;12988522;22;20003;-88
2022/10/04 04:43:28;;;;;;;30.23;17.45;;;;;;;9.96;100.00;102024.28;13045730;22;20023;-88
2022/10/04 04:48:30;;;;;;;31.88;17.42;;;;;;;8.46;100.00;101815.88;13021311;22;20461;-89
2022/10/04 04:53:34;;;;;;;32.85;18.23;;;;;;;8.18;100.00;101751.13;12924981;22;20003;-88
2022/10/04 04:58:40;;;;;;;29.63;17.80;;;;;;;9.20;100.00;101938.06;12899729;22;19999;-89
2022/10/04 05:03:43;;;;;;;37.65;18.33;;;;;;;8.26;100.00;101767.34;12902426;22;20003;-89
2022/10/04 05:08:48;;;;;;;27.95;17.75;;;;;;;8.83;100.00;101876.53;12920748;22;20467;-88
2022/10/04 05:14:11;;;;;;;28.63;18.38;;;;;;;8.51;100.00;101824.28;13014287;22;20325;-89
2022/10/04 05:19:23;;;;;;;30.23;17.77;;;;;;;9.51;100.00;102005.13;12908550;22;20011;-89
2022/10/04 05:24:30;;;;;;;28.60;18.30;;;;;;;9.78;100.00;102033.31;13017826;22;20033;-89
2022/10/04 05:29:34;;;;;;;38.97;20.60;;;;;;;9.85;100.00;102069.84;13041903;22;20048;-88
2022/10/04 05:34:39;;;;;;;34.20;20.55;;;;;;;7.90;100.00;101784.34;12967365;22;19999;-88
2022/10/04 05:39:49;;;;;;;38.15;20.05;;;;;;;7.79;100.00;101750.22;13029143;22;20003;-89
2022/10/04 05:44:51;;;;;;;35.72;20.15;;;;;;;8.94;100.00;101999.41;13019409;22;20049;-88
2022/10/04 05:49:54;;;;;;;39.42;20.75;;;;;;;8.13;100.00;101857.09;13045345;22;20025;-89
2022/10/04 05:55:27;;;;;;;43.28;22.67;;;;;;;8.24;100.00;101911.28;13026848;22;20455;-87
2022/10/04 06:00:53;;;;;;;38.33;23.33;;;;;;;7.95;100.00;101868.72;13001822;22;20011;-88
2022/10/04 06:06:04;;;;;;;37.35;21.73;;;;;;;6.68;100.00;101657.81;13045007;22;20011;-89
2022/10/04 06:11:20;;;;;;;38.30;21.70;;;;;;;7.41;100.00;101785.69;13020626;22;20015;-89
2022/10/04 06:16:39;;;;;;;38.10;22.48;;;;;;;8.33;100.00;101901.78;13025635;22;20002;-89
2022/10/04 06:21:58;;;;;;;36.92;21.65;;;;;;;8.09;100.00;101897.81;13053749;22;20445;-88
2022/10/04 06:27:35;;;;;;;46.70;24.05;;;;;;;7.95;100.00;101839.38;13001031;22;20017;-89
2022/10/04 06:33:01;;;;;;;39.40;25.35;;;;;;;9.31;100.00;102040.94;13059123;22;20445;-88
2022/10/04 06:38:31;;;;;;;42.65;24.75;;;;;;;9.46;100.00;102043.41;13065303;22;20314;-89
2022/10/04 06:43:38;;;;;;;52.28;26.15;;;;;;;9.68;100.00;102058.53;13092117;22;20015;-89
2022/10/04 06:48:57;;;;;;;41.30;25.95;;;;;;;9.92;100.00;102049.72;13066390;22;20018;-89
2022/10/04 06:54:11;;;;;;;38.72;24.90;;;;;;;9.61;100.00;101971.63;13022623;22;20042;-89
2022/10/04 06:59:43;;;;;;;41.25;23.33;;;;;;;10.16;100.00;102105.88;13024108;22;20006;-88
2022/10/04 07:04:56;;;;;;;37.38;22.52;;;;;;;8.80;100.00;101827.53;13053012;22;20108;-88
2022/10/04 07:10:05;;;;;;;35.53;22.17;;;;;;;10.45;100.00;102049.38;13014744;22;20023;-88
2022/10/04 07:15:13;;;;;;;30.02;14.88;;;;;;;10.63;100.00;102079.72;13032587;22;20032;-88
2022/10/04 07:20:22;;;;;;;26.27;18.38;;;;;;;9.17;100.00;101841.47;12975450;22;20003;-89
2022/10/04 07:25:27;;;;;;;29.45;18.58;;;;;;;10.33;100.00;101971.31;13044056;22;20417;-88
2022/10/04 07:30:28;;;;;;;35.55;17.60;;;;;;;9.96;100.00;101834.47;13006215;22;20014;-88
2022/10/04 07:35:34;;;;;;;26.73;15.73;;;;;;;9.44;100.00;101713.78;13013401;22;20384;-89
2022/10/04 07:41:02;;;;;;;20.80;14.20;;;;;;;11.62;100.00;102008.00;13006922;22;20090;-89
2022/10/04 07:46:10;;;;;;;;;;;;;;;11.75;100.00;102004.19;13054262;22;20341;-89
2022/10/04 07:51:38;;;;;;;19.08;13.02;;;;;;;10.12;100.00;101719.41;13027667;22;19985;-89
2022/10/04 07:56:50;;;;;;;24.65;12.43;;;;;;;10.36;100.00;101773.53;12940757;22;20022;-88
2022/10/04 08:02:12;;;;;;;22.13;12.48;;;;;;;12.00;100.00;102011.50;13014079;22;20042;-88
2022/10/04 08:07:36;;;;;;;19.88;11.57;;;;;;;12.19;100.00;102004.81;13067044;22;20046;-88
2022/10/04 08:12:51;;;;;;;15.88;10.00;;;;;;;11.45;100.00;101822.19;13042421;22;20003;-88
2022/10/04 08:17:54;;;;;;;14.48;9.90;;;;;;;13.23;100.00;102004.19;12934001;22;20349;-88
2022/10/04 08:23:07;;;;;;;15.13;9.55;;;;;;;12.64;100.00;101846.78;13056143;22;20460;-88
2022/10/04 08:34:21;;;;;;;20.17;10.50;;;;;;;14.03;100.00;101973.88;13093083;22;19999;-88
2022/10/04 08:39:45;;;;;;;13.80;9.60;;;;;;;13.98;100.00;101973.81;13065001;22;20034;-89
2022/10/04 08:45:11;;;;;;;22.38;12.43;;;;;;;13.74;100.00;101987.75;12979694;22;20022;-88
2022/10/04 08:50:30;;;;;;;18.10;10.82;;;;;;;13.46;100.00;101992.22;13037852;22;20089;-88
2022/10/04 08:55:33;;;;;;;20.13;12.02;;;;;;;13.20;100.00;101990.81;13091683;22;20018;-90
2022/10/04 09:00:37;;;;;;;23.08;12.40;;;;;;;12.65;100.00;101947.94;13023672;22;20010;-88
2022/10/04 09:06:19;;;;;;;20.73;12.25;;;;;;;13.26;100.00;101997.31;13041347;22;20390;-87
2022/10/04 09:11:29;;;;;;;17.48;10.65;;;;;;;13.50;100.00;102020.25;13006594;22;20022;-88
2022/10/04 09:16:38;;;;;;;17.40;9.65;;;;;;;13.12;100.00;101858.50;13028784;22;20332;-89
2022/10/04 09:21:53;;;;;;;12.57;7.43;;;;;;;13.65;100.00;101884.09;13012897;22;20010;-89
2022/10/04 09:27:38;;;;;;;18.52;8.43;;;;;;;13.81;100.00;101871.34;13067410;22;20011;-90
2022/10/04 09:32:49;;;;;;;17.90;7.00;;;;;;;14.79;100.00;101970.66;12922196;22;20002;-88
2022/10/04 09:38:08;;;;;;;10.43;6.07;;;;;;;14.80;100.00;101908.56;13024457;22;20006;-88
2022/10/04 09:43:32;;;;;;;11.35;5.80;;;;;;;14.84;100.00;101873.69;13054041;22;20021;-91
2022/10/04 09:48:42;;;;;;;12.30;5.22;;;;;;;15.58;100.00;101952.75;13065095;22;20030;-89
2022/10/04 09:54:10;;;;;;;11.88;4.95;;;;;;;15.55;100.00;101951.34;13065619;22;20007;-89
2022/10/04 09:59:39;;;;;;;8.02;4.80;;;;;;;15.49;100.00;101953.22;13050913;22;20011;-88
2022/10/04 10:04:51;;;;;;;12.00;5.18;;;;;;;14.34;100.00;101792.38;13054071;22;20317;-89
2022/10/04 10:15:54;;;;;;;9.73;5.05;;;;;;;15.18;100.00;101843.03;12995686;22;20011;-91
2022/10/04 10:21:37;;;;;;;9.75;5.03;;;;;;;16.00;100.00;101908.47;13000426;22;20433;-91
2022/10/04 10:27:01;;;;;;;13.77;6.00;;;;;;;16.27;100.00;101930.63;13021173;22;20015;-91
2022/10/04 10:32:38;;;;;;;8.45;4.30;;;;;;;16.16;100.00;101911.34;13045891;22;20007;-91
2022/10/04 10:38:05;;;;;;;9.82;4.05;;;;;;;16.00;100.00;101902.06;13034754;22;20329;-90
2022/10/04 10:43:19;;;;;;;8.23;4.45;;;;;;;15.94;100.00;101838.16;13075730;22;20033;-91
2022/10/04 10:48:26;;;;;;;16.50;3.95;;;;;;;16.20;100.00;101824.41;13037339;22;20018;-93
2022/10/04 10:53:47;;;;;;;11.10;5.05;;;;;;;16.56;100.00;101863.53;13054247;22;20036;-92
2022/10/04 10:58:47;;;;;;;7.68;4.93;;;;;;;16.81;100.00;101887.03;12994626;22;20007;-93
2022/10/04 11:04:13;;;;;;;11.85;4.78;;;;;;;17.22;100.00;101896.34;13053998;22;20093;-93
2022/10/04 11:09:16;;;;;;;11.90;4.85;;;;;;;17.33;100.00;101888.84;13034600;22;20011;-90
2022/10/04 11:14:33;;;;;;;10.77;4.28;;;;;;;16.63;100.00;101802.94;13064753;22;20006;-89
2022/10/04 11:19:44;;;;;;;7.60;4.32;;;;;;;17.45;100.00;101875.50;12996888;22;20059;-90
2022/10/04 11:24:49;;;;;;;9.20;3.85;;;;;;;16.31;100.00;101628.88;13063381;22;20003;-91
2022/10/04 11:30:11;;;;;;;11.10;3.05;;;;;;;17.24;100.00;101735.50;13035278;22;20019;-89
2022/10/04 11:35:39;;;;;;;8.60;4.03;;;;;;;17.89;100.00;101849.91;13048522;22;20003;-91
2022/10/04 11:40:53;;;;;;;10.00;3.85;;;;;;;17.26;100.00;101751.91;13032519;22;20011;-91
2022/10/04 11:46:09;;;;;;;;;;;;;;;18.01;100.00;101841.28;13015667;22;20019;-91
2022/10/04 11:51:21;;;;;;;12.80;3.80;;;;;;;17.28;100.00;101732.97;13050235;22;19915;-91
2022/10/04 11:56:25;;;;;;;9.15;3.28;;;;;;;17.84;100.00;101704.25;13064334;22;20006;-90
2022/10/04 12:01:45;;;;;;;9.23;3.13;;;;;;;19.48;100.00;101734.78;13049148;22;20329;-93
2022/10/04 12:07:01;;;;;;;10.32;3.45;;;;;;;19.81;100.00;101640.03;13066490;22;20010;-93
2022/10/04 12:17:42;;;;;;;8.23;3.50;;;;;;;20.01;93.70;101579.41;13062648;22;20031;-91
2022/10/04 12:23:04;;;;;;;6.93;4.03;;;;;;;21.28;92.71;101707.28;13040132;22;20007;-89
2022/10/04 12:28:19;;;;;;;9.43;3.78;;;;;;;20.48;91.14;101700.66;13036106;22;20332;-89
2022/10/04 12:33:24;;;;;;;7.35;4.07;;;;;;;20.13;90.71;101551.84;12960350;22;20333;-90
2022/10/04 12:39:04;;;;;;;10.30;4.50;;;;;;;22.38;90.56;101761.84;13041778;22;20015;-91
2022/10/04 12:44:28;;;;;;;6.68;3.53;;;;;;;21.37;86.18;101643.78;12911603;22;20021;-92
2022/10/04 12:49:59;;;;;;;6.43;4.28;;;;;;;21.76;88.70;101752.63;12949371;22;20018;-92
2022/10/04 12:55:08;;;;;;;11.93;3.67;;;;;;;22.23;87.82;101732.13;13012635;22;20038;-91
2022/10/04 13:00:22;;;;;;;9.20;3.80;;;;;;;20.84;82.96;101523.88;12972171;22;20007;-94
2022/10/04 13:05:49;;;;;;;6.93;3.22;;;;;;;21.37;83.74;101565.38;12986501;22;20006;-91
2022/10/04 13:11:28;;;;;;;6.93;2.88;;;;;;;22.95;82.23;101706.91;13007934;22;20014;-88
2022/10/04 13:16:44;;;;;;;5.05;2.67;;;;;;;21.52;80.02;101550.28;12998577;22;20082;-92
2022/10/04 13:22:11;;;;;;;7.43;3.13;;;;;;;22.40;78.45;101697.84;13074253;22;20010;-94
2022/10/04 13:27:14;;;;;;;5.90;2.80;;;;;;;22.10;76.41;101543.94;12982191;22;20345;-90
2022/10/04 13:32:16;;;;;;;4.00;2.05;;;;;;;23.11;75.41;101698.13;13004102;22;20433;-92
2022/10/04 13:37:38;;;;;;;7.13;2.35;;;;;;;23.59;75.44;101699.44;13032862;22;20051;-93
2022/10/04 13:43:16;;;;;;;10.07;3.38;;;;;;;23.00;73.17;101686.28;13016905;22;20083;-92
2022/10/04 13:48:33;;;;;;;9.52;2.67;;;;;;;22.19;75.78;101558.03;13026274;22;20087;-92
2022/10/04 13:59:28;;;;;;;8.88;2.92;;;;;;;22.92;72.13;101563.53;13092891;22;20015;-87
2022/10/04 14:04:58;;;;;;;7.70;3.15;;;;;;;22.76;75.03;101566.75;13014319;22;20018;-89
2022/10/04 14:10:27;;;;;;;8.77;2.97;;;;;;;23.30;77.09;101659.44;13027540;22;20404;-88
2022/10/04 14:16:03;;;;;;;5.95;3.20;;;;;;;22.12;78.12;101636.16;13054846;22;20445;-84
2022/10/04 14:21:31;;;;;;;6.72;3.65;;;;;;;22.03;78.68;101664.09;13044939;22;20027;-88
2022/10/04 14:27:09;;;;;;;4.70;2.78;;;;;;;21.20;78.73;101674.38;13067406;22;20009;-91
2022/10/04 14:32:40;;;;;;;10.98;4.78;;;;;;;20.79;79.31;101689.03;13063818;22;20014;-90
2022/10/04 14:38:19;;;;;;;6.18;3.63;;;;;;;19.55;81.16;101534.19;13065397;22;20003;-86
2022/10/04 14:43:44;;;;;;;7.45;3.72;;;;;;;20.45;83.14;101706.88;13050925;22;20448;-88
2022/10/04 14:49:10;;;;;;;8.95;3.78;;;;;;;19.23;82.69;101637.31;13039717;22;20038;-88
2022/10/04 14:54:27;;;;;;;11.85;4.47;;;;;;;18.47;85.32;101629.25;13066648;22;20002;-85
2022/10/04 15:00:05;;;;;;;5.75;3.20;;;;;;;18.49;88.54;101685.56;13019406;22;20329;-87
2022/10/04 15:05:07;;;;;;;8.40;3.78;;;;;;;18.08;91.36;101690.50;13039112;22;20006;-87
2022/10/04 15:10:37;;;;;;;9.18;4.25;;;;;;;17.23;93.46;101613.34;13060046;22;20344;-86
2022/10/04 15:15:57;;;;;;;9.02;3.60;;;;;;;16.81;98.28;101550.53;12996176;22;20469;-86
2022/10/04 15:21:01;;;;;;;7.90;3.90;;;;;;;16.23;97.25;101528.56;13035868;22;20037;-86
2022/10/04 15:26:19;;;;;;;9.15;4.47;;;;;;;17.34;100.00;101720.72;13008539;22;20042;-86
2022/10/04 15:31:31;;;;;;;12.10;4.60;;;;;;;17.04;100.00;101718.81;13057770;22;20025;-87
2022/10/04 15:37:09;;;;;;;7.15;4.20;;;;;;;16.91;100.00;101715.44;13034251;22;20056;-86
2022/10/04 15:42:33;;;;;;;9.55;4.43;;;;;;;15.90;100.00;101594.59;13027196;22;20043;-87
2022/10/04 15:48:11;;;;;;;13.23;4.55;;;;;;;16.50;100.00;101726.47;13013653;22;20023;-90
2022/10/04 15:53:15;;;;;;;9.63;4.40;;;;;;;15.85;100.00;101620.38;13064470;22;20002;-89
2022/10/04 15:58:27;;;;;;;9.50;4.38;;;;;;;16.36;100.00;101694.72;13038961;22;20014;-88
2022/10/04 16:03:52;;;;;;;10.40;5.20;;;;;;;15.63;100.00;101637.19;13063830;22;20437;-86
2022/10/04 16:08:56;;;;;;;7.85;4.25;;;;;;;15.47;100.00;101586.31;13039999;22;20322;-85
2022/10/04 16:14:18;;;;;;;11.82;4.75;;;;;;;16.07;100.00;101697.13;13063952;22;20349;-85
2022/10/04 16:19:41;;;;;;;8.77;4.40;;;;;;;15.94;100.00;101688.19;13091747;22;20006;-85
2022/10/04 16:24:52;;;;;;;12.35;4.85;;;;;;;14.45;100.00;101470.06;13038637;22;20014;-88
2022/10/04 16:30:05;;;;;;;9.10;4.88;;;;;;;14.87;100.00;101579.31;13015337;22;20433;-87
2022/10/04 16:35:15;;;;;;;15.70;5.47;;;;;;;14.46;100.00;101565.91;13013144;22;20007;-89
2022/10/04 16:40:53;;;;;;;9.52;4.43;;;;;;;15.09;100.00;101668.75;13014430;22;20194;-89
2022/10/04 16:46:16;;;;;;;12.68;5.43;;;;;;;14.14;100.00;101596.38;13003758;22;20042;-87
2022/10/04 16:51:23;;;;;;;10.35;4.20;;;;;;;14.11;100.00;101578.31;13014384;22;20141;-87
2022/10/04 16:56:28;;;;;;;10.07;4.07;;;;;;;12.98;100.00;101465.47;13036189;22;20078;-86
2022/10/04 17:02:09;;;;;;;9.75;4.22;;;;;;;13.87;100.00;101627.63;12897078;22;20070;-90
2022/10/04 17:07:12;;;;;;;8.68;4.28;;;;;;;14.14;100.00;101709.91;13043190;22;20023;-88
2022/10/04 17:12:16;;;;;;;10.60;4.90;;;;;;;12.80;100.00;101515.50;13052135;22;20003;-91
2022/10/04 17:17:42;;;;;;;11.27;4.90;;;;;;;13.80;100.00;101693.38;13015491;22;20030;-91
2022/10/04 17:22:51;;;;;;;8.45;4.88;;;;;;;13.68;100.00;101700.97;13042347;22;20007;-92
2022/10/04 17:27:55;;;;;;;10.63;5.38;;;;;;;12.46;100.00;101534.84;13017357;22;20018;-91
2022/10/04 17:33:23;;;;;;;10.82;4.43;;;;;;;13.64;100.00;101697.03;13019716;22;20003;-88
2022/10/04 17:38:39;;;;;;;11.20;5.15;;;;;;;12.19;100.00;101454.63;13002293;22;19999;-91
2022/10/04 17:43:43;;;;;;;11.90;4.32;;;;;;;11.58;100.00;101333.03;13029066;22;20022;-91
2022/10/04 17:59:47;;;;;;;8.70;4.40;;;;;;;11.40;100.00;101362.47;12989565;22;20089;-90
2022/10/04 18:04:55;;;;;;;8.25;4.57;;;;;;;12.26;100.00;101483.75;12951054;22;20009;-90
2022/10/04 18:10:02;;;;;;;8.77;5.85;;;;;;;13.72;100.00;101713.19;12990504;22;20396;-90
2022/10/04 18:15:14;;;;;;;12.25;5.03;;;;;;;12.61;100.00;101529.59;12987966;22;20443;-90
2022/10/04 18:21:06;;;;;;;;;;;;;;;;;;;;;
2022/10/04 18:26:42;;;;;;;9.88;5.07;;;;;;;12.23;100.00;101444.75;12874830;22;20046;-88
2022/10/04 18:32:00;;;;;;;9.75;5.13;;;;;;;12.82;100.00;101505.03;12889938;22;20015;-85
2022/10/04 18:37:36;;;;;;;10.18;5.30;;;;;;;12.47;100.00;101406.75;12892987;22;20007;-91
2022/10/04 18:42:37;;;;;;;10.82;5.43;;;;;;;12.66;100.00;101399.81;12986052;22;20093;-89
2022/10/04 18:47:38;;;;;;;14.77;5.85;;;;;;;13.45;100.00;101539.63;13019943;22;20019;-88
2022/10/04 18:52:57;;;;;;;11.82;5.88;;;;;;;14.39;100.00;101655.91;13021619;22;20003;-90
2022/10/04 19:03:45;;;;;;;11.35;5.30;;;;;;;13.00;100.00;101471.59;12982151;22;20062;-89
2022/10/04 19:09:07;;;;;;;9.77;5.15;;;;;;;14.58;100.00;101665.53;13019841;22;20019;-89
2022/10/04 19:14:34;;;;;;;9.65;5.28;;;;;;;14.61;100.00;101664.16;13058916;22;20025;-89
2022/10/04 19:19:40;;;;;;;15.13;5.45;;;;;;;14.55;100.00;101649.38;13045036;22;20076;-88
2022/10/04 19:25:22;;;;;;;10.82;5.30;;;;;;;14.53;100.00;101641.34;13044418;22;20006;-88
2022/10/04 19:30:47;;;;;;;10.43;5.75;;;;;;;13.35;100.00;101473.13;12662996;23;20022;-88
2022/10/04 19:36:17;;;;;;;9.80;5.43;;;;;;;13.90;100.00;101555.13;12993470;22;20086;-88
2022/10/04 20:08:14;;;;;;;;;;;;;;;;;;;;;
2022/10/04 20:20:08;;;;;;;7.57;4.75;;;;;;;13.57;100.00;101461.22;12416657;23;20020;-88
2022/10/04 20:26:07;;;;;;;10.75;5.07;;;;;;;14.66;100.00;101617.94;12439527;23;20009;-88
2022/10/04 20:31:31;;;;;;;12.52;5.57;;;;;;;14.65;100.00;101607.13;12869835;22;20424;-88
2022/10/04 20:37:23;;;;;;;11.52;6.30;;;;;;;14.65;100.00;101594.09;12830992;22;20080;-88
2022/10/04 20:42:44;;;;;;;10.02;5.82;;;;;;;13.96;100.00;101519.19;12777964;22;20015;-88
2022/10/04 20:47:48;;;;;;;12.70;5.85;;;;;;;13.83;100.00;101482.53;12796624;22;20090;-86
2022/10/04 20:59:08;;;;;;;10.43;5.72;;;;;;;12.97;100.00;101364.28;12710503;22;20023;-86
2022/10/04 21:04:51;;;;;;;11.43;5.32;;;;;;;13.86;100.00;101542.88;12803908;22;20049;-86
2022/10/04 21:10:15;;;;;;;14.95;5.50;;;;;;;12.45;100.00;101307.56;12954762;22;20023;-85
2022/10/04 21:15:23;;;;;;;8.82;5.75;;;;;;;14.63;100.00;101634.25;12980802;22;20015;-87
2022/10/04 21:26:45;;;;;;;;;;;;;;;;;;;;;
2022/10/04 21:32:09;;;;;;;14.32;6.28;;;;;;;13.75;100.00;101507.91;12771518;22;20374;-87
2022/10/04 21:37:50;;;;;;;;;;;;;;;;;;;;;
2022/10/04 21:43:20;;;;;;;11.93;5.00;;;;;;;12.85;100.00;101324.91;12925875;22;20025;-88
2022/10/04 21:48:22;;;;;;;8.57;5.82;;;;;;;14.49;100.00;101589.47;12904504;22;20022;-86
2022/10/04 21:53:43;;;;;;;13.52;5.93;;;;;;;14.60;100.00;101596.81;12908850;22;20026;-86
2022/10/04 22:04:33;;;;;;;15.13;6.32;;;;;;;13.74;100.00;101450.88;12855981;22;20008;-86
2022/10/04 22:10:20;;;;;;;21.13;6.60;;;;;;;13.39;100.00;101410.69;12915555;22;20476;-88
2022/10/04 22:22:30;;;;;;;12.57;6.22;;;;;;;13.03;100.00;101366.03;12806381;22;20024;-87
2022/10/04 22:27:43;;;;;;;11.52;5.85;;;;;;;12.93;100.00;101349.31;12896543;22;20028;-87
2022/10/04 22:33:40;;;;;;;;;;;;;;;;;;;;;
2022/10/04 22:46:20;;;;;;;8.68;5.38;;;;;;;14.68;100.00;101593.56;12812491;22;20026;-87
2022/10/04 22:51:33;;;;;;;10.15;6.22;;;;;;;12.87;100.00;101336.53;12847377;22;20181;-87
2022/10/04 23:03:51;;;;;;;8.75;5.57;;;;;;;13.40;100.00;101373.66;12557951;23;20017;-88
2022/10/04 23:15:11;;;;;;;13.52;6.75;;;;;;;13.49;100.00;101374.81;12354718;23;20023;-90
2022/10/04 23:20:16;;;;;;;11.52;6.35;;;;;;;12.85;100.00;101300.88;12601879;23;20014;-90
2022/10/04 23:25:25;;;;;;;11.45;6.03;;;;;;;13.33;100.00;101367.47;12872242;22;20010;-89
2022/10/04 23:30:26;;;;;;;11.07;5.97;;;;;;;13.78;100.00;101421.59;13029962;22;20448;-89
2022/10/04 23:35:30;;;;;;;11.52;5.90;;;;;;;12.85;100.00;101283.47;13071578;22;19999;-90
2022/10/04 23:40:31;;;;;;;10.68;6.07;;;;;;;13.97;100.00;101468.25;13134902;22;19999;-89
2022/10/04 23:45:34;;;;;;;13.30;6.93;;;;;;;13.86;100.00;101448.78;13044231;22;20326;-90
2022/10/04 23:50:35;;;;;;;9.55;6.00;;;;;;;13.59;100.00;101395.41;13062759;22;20022;-90
2022/10/04 23:55:40;;;;;;;10.25;6.20;;;;;;;14.63;100.00;101573.28;13084613;22;20007;-89
